Terminal Aerodrome Forecast
Issued by NWS

Current Version | Previous Version | Text Only | Print | Product List | Glossary On
Versions: 1 2 3 4 5 6 7 8 9 10 11 12 13 14 15 16 17 18 19 20 21 22 23 24 25 26
000
FTAK31 PANC 191315 AAA
TAFAGK
TAF AMD
PAGK 191315Z 1913/2012 15011KT P6SM -SHRA BKN035 OVC050
     FM191500 VRB04KT P6SM BKN050 OVC090
     FM200400 16010G18KT P6SM BKN050 OVC090=

USA.gov is the U.S. government's official web portal to all federal, state and local government web resources and services.